This is the latest recevied weather packets stored in our database for station/object W8UFO-13. If no packets are shown the sender has not sent any weather packets the latest 10 day(s).
| Time | Temp. | Humidity | Pressure | Rain* | Wind** | Luminosity | Snow |
|---|---|---|---|---|---|---|---|
| 1777828157 | 16.67° C | 42% | 1022.5 hPa | 0 mm | - | - | - |
| 1777827856 | 17.22° C | 44% | 1022.6 hPa | 0 mm | - | - | - |
| 1777827557 | 16.67° C | 49% | 1022.6 hPa | 0 mm | - | - | - |
| 1777827256 | 16.67° C | 46% | 1022.6 hPa | 0 mm | - | - | - |
| 1777826956 | 16.11° C | 45% | 1022.6 hPa | 0 mm | - | - | - |
| 1777826656 | 16.11° C | 45% | 1022.6 hPa | 0 mm | - | - | - |
| 1777826356 | 15.56° C | 46% | 1022.7 hPa | 0 mm | - | - | - |
| 1777826056 | 16.11° C | 45% | 1022.9 hPa | 0 mm | - | - | - |
| 1777825756 | 16.11° C | 50% | 1022.9 hPa | 0 mm | - | - | - |
| 1777825457 | 15.56° C | 50% | 1022.8 hPa | 0 mm | - | - | - |
| 1777825156 | 16.11° C | 49% | 1022.9 hPa | 0 mm | - | - | - |
| 1777824857 | 15° C | 46% | 1022.9 hPa | 0 mm | - | - | - |
| 1777824556 | 15° C | 46% | 1022.9 hPa | 0 mm | - | - | - |
| 1777824257 | 15° C | 48% | 1022.9 hPa | 0 mm | - | - | - |
| 1777823956 | 15.56° C | 49% | 1023.1 hPa | 0 mm | - | - | - |
| 1777823656 | 15.56° C | 48% | 1023 hPa | 0 mm | - | - | - |
| 1777823356 | 15° C | 47% | 1022.9 hPa | 0 mm | - | - | - |
| 1777823056 | 15° C | 50% | 1023.1 hPa | 0 mm | - | - | - |
| 1777822756 | 14.44° C | 48% | 1023.2 hPa | 0 mm | - | - | - |
| 1777822456 | 14.44° C | 48% | 1023.3 hPa | 0 mm | - | - | - |
| 1777822156 | 14.44° C | 47% | 1023.3 hPa | 0 mm | - | - | - |
| 1777821856 | 14.44° C | 50% | 1023.4 hPa | 0 mm | - | - | - |
| 1777821557 | 14.44° C | 47% | 1023.4 hPa | 0 mm | - | - | - |
| 1777821257 | 13.89° C | 50% | 1023.3 hPa | 0 mm | - | - | - |
| 1777820956 | 13.33° C | 54% | 1023.3 hPa | 0 mm | - | - | - |
* Rain latest hour (hover to see other rain measurements)
** Current wind speed in m/s (hover to see current wind gust speed)